createdAt,value
2023-03-22T00:00:27.818Z,3.70
2023-03-22T00:05:31.613Z,9.73
2023-03-22T00:10:35.672Z,6.17
2023-03-22T00:15:40.619Z,4.23
2023-03-22T00:20:48.551Z,5.73
2023-03-22T00:25:52.224Z,5.93
2023-03-22T00:30:59.255Z,2.80
2023-03-22T00:36:05.201Z,7.33
2023-03-22T00:41:09.269Z,5.10
2023-03-22T00:46:15.397Z,5.77
2023-03-22T00:51:18.958Z,3.63
2023-03-22T00:56:23.131Z,3.30
2023-03-22T01:01:45.032Z,4.30
2023-03-22T01:06:48.514Z,4.43
2023-03-22T01:11:52.111Z,4.43
2023-03-22T01:16:57.775Z,7.43
2023-03-22T01:22:01.319Z,4.47
2023-03-22T01:27:05.944Z,3.53
2023-03-22T01:32:10.918Z,8.07
2023-03-22T01:37:14.912Z,4.37
2023-03-22T01:42:22.482Z,4.53
2023-03-22T01:47:30.174Z,4.30
2023-03-22T01:52:33.546Z,5.60
2023-03-22T01:57:45.636Z,6.13
2023-03-22T02:02:58.668Z,4.53
2023-03-22T02:08:09.199Z,4.07
2023-03-22T02:13:39.037Z,5.87
2023-03-22T02:19:03.381Z,5.63
2023-03-22T02:24:35.091Z,5.63
2023-03-22T02:29:45.112Z,5.20
2023-03-22T02:34:58.338Z,6.70
2023-03-22T02:40:08.830Z,4.80
2023-03-22T02:45:14.739Z,4.77
2023-03-22T02:50:23.620Z,4.33
2023-03-22T02:55:30.648Z,4.87
2023-03-22T03:00:34.891Z,5.33
2023-03-22T03:05:41.537Z,6.03
2023-03-22T03:10:46.368Z,5.97
2023-03-22T03:15:52.848Z,4.53
2023-03-22T03:21:02.846Z,5.43
2023-03-22T03:26:13.433Z,5.93
2023-03-22T03:31:21.771Z,8.33
2023-03-22T03:36:26.115Z,8.03
2023-03-22T03:41:31.355Z,8.73
2023-03-22T03:46:34.626Z,7.10
2023-03-22T03:51:47.089Z,5.70
2023-03-22T03:56:52.409Z,11.23
2023-03-22T04:01:55.958Z,6.37
2023-03-22T04:07:07.216Z,6.23
2023-03-22T04:12:15.056Z,4.13
2023-03-22T04:17:23.259Z,7.60
2023-03-22T04:22:27.641Z,4.20
2023-03-22T04:27:32.575Z,5.13
2023-03-22T04:32:39.898Z,4.17
2023-03-22T04:37:44.571Z,5.27
2023-03-22T04:42:58.950Z,3.40
2023-03-22T04:48:22.344Z,3.00
2023-03-22T04:53:28.406Z,3.10
2023-03-22T04:58:39.976Z,3.23
2023-03-22T05:03:45.607Z,3.90
2023-03-22T05:08:50.728Z,7.73
2023-03-22T05:13:59.219Z,4.23
2023-03-22T05:19:04.219Z,5.03
2023-03-22T05:24:08.271Z,3.37
2023-03-22T05:29:13.529Z,3.60
2023-03-22T05:34:38.209Z,3.10
2023-03-22T05:39:57.587Z,4.27
2023-03-22T05:45:12.434Z,5.13
2023-03-22T05:50:18.527Z,4.80
2023-03-22T05:55:22.631Z,7.27
2023-03-22T06:00:35.857Z,3.97
2023-03-22T06:05:59.406Z,3.13
2023-03-22T06:11:13.176Z,3.60
2023-03-22T06:16:18.999Z,3.10
2023-03-22T06:21:22.600Z,3.93
2023-03-22T06:26:25.942Z,4.37
2023-03-22T06:31:31.308Z,3.07
2023-03-22T06:36:41.294Z,3.70
2023-03-22T06:41:51.167Z,4.13
2023-03-22T06:46:56.436Z,3.57
2023-03-22T06:52:20.508Z,4.17
2023-03-22T06:57:23.934Z,3.27
2023-03-22T07:02:28.846Z,3.13
2023-03-22T07:07:52.750Z,6.00
2023-03-22T07:12:56.359Z,3.43
2023-03-22T07:18:02.345Z,2.63
2023-03-22T07:23:08.527Z,2.63
2023-03-22T07:28:19.562Z,1.90
2023-03-22T07:33:24.217Z,2.47
2023-03-22T07:38:28.292Z,2.30
2023-03-22T07:43:35.396Z,2.87
2023-03-22T07:48:49.773Z,1.80
2023-03-22T07:54:33.321Z,2.53
2023-03-22T07:59:40.210Z,1.80
2023-03-22T08:04:47.237Z,1.97
2023-03-22T08:10:00.218Z,3.57
2023-03-22T08:15:03.858Z,1.40
2023-03-22T08:20:12.604Z,5.23
2023-03-22T08:25:26.895Z,2.37
2023-03-22T08:30:36.058Z,2.90
2023-03-22T08:35:42.156Z,1.40
2023-03-22T08:40:47.913Z,1.90
2023-03-22T08:45:55.010Z,2.70
2023-03-22T08:51:01.293Z,2.73
2023-03-22T08:56:20.420Z,1.93
2023-03-22T09:01:37.838Z,1.93
2023-03-22T09:06:45.619Z,2.73
2023-03-22T09:11:49.498Z,1.30
2023-03-22T09:16:53.092Z,2.43
2023-03-22T09:21:58.518Z,1.40
2023-03-22T09:27:13.293Z,1.20
2023-03-22T09:32:17.658Z,1.30
2023-03-22T09:37:30.555Z,1.33
2023-03-22T09:42:39.057Z,3.83
2023-03-22T09:47:47.296Z,1.30
2023-03-22T09:52:52.892Z,1.10
2023-03-22T09:58:00.166Z,1.40
2023-03-22T10:03:10.681Z,2.90
2023-03-22T10:08:32.237Z,3.00
2023-03-22T10:13:39.566Z,1.17
2023-03-22T10:18:47.314Z,0.97
2023-03-22T10:23:52.833Z,1.33
2023-03-22T10:29:00.800Z,1.53
2023-03-22T10:34:07.160Z,3.47
2023-03-22T10:39:16.773Z,2.20
2023-03-22T10:44:22.843Z,1.13
2023-03-22T10:49:28.756Z,3.03
2023-03-22T10:54:32.456Z,1.53
2023-03-22T10:59:56.708Z,2.70
2023-03-22T11:05:03.184Z,1.20
2023-03-22T11:10:14.824Z,1.30
2023-03-22T11:15:23.798Z,1.33
2023-03-22T11:20:30.636Z,1.33
2023-03-22T11:25:47.052Z,1.53
2023-03-22T11:31:01.196Z,1.40
2023-03-22T11:36:07.059Z,1.80
2023-03-22T11:41:13.188Z,1.80
2023-03-22T11:46:17.250Z,1.33
2023-03-22T11:51:30.051Z,2.07
2023-03-22T11:56:33.594Z,1.30
2023-03-22T12:01:40.231Z,1.23
2023-03-22T12:06:45.304Z,2.10
2023-03-22T12:11:50.291Z,1.27
2023-03-22T12:16:55.593Z,2.00
2023-03-22T12:22:00.399Z,4.20
2023-03-22T12:27:06.388Z,1.40
2023-03-22T12:32:13.248Z,2.10
2023-03-22T12:37:22.072Z,2.00
2023-03-22T12:42:28.206Z,2.17
2023-03-22T12:47:33.696Z,1.97
2023-03-22T12:52:45.707Z,2.97
2023-03-22T12:57:52.637Z,3.67
2023-03-22T13:02:59.883Z,2.60
2023-03-22T13:08:05.974Z,1.50
2023-03-22T13:13:15.617Z,1.00
2023-03-22T13:18:32.646Z,1.10
2023-03-22T13:23:38.339Z,1.27
2023-03-22T13:28:42.179Z,1.27
2023-03-22T13:33:54.392Z,1.67
2023-03-22T13:38:59.932Z,1.27
2023-03-22T13:44:06.540Z,2.73
2023-03-22T13:49:26.790Z,1.93
2023-03-22T13:54:34.224Z,1.37
2023-03-22T14:00:03.132Z,2.00
2023-03-22T14:05:17.571Z,0.80
2023-03-22T14:10:25.305Z,1.47
2023-03-22T14:15:30.455Z,1.00
2023-03-22T14:20:36.148Z,0.77
